Terminal Aerodrome Forecast
Issued by NWS

Home | Current Version | Previous Version | Text Only | Print | Product List | Glossary On
Versions: 1 2 3 4 5 6 7 8 9 10 11 12 13 14 15 16
000
FTUS43 KICT 291140
TAFSLN
TAF
KSLN 291140Z 2912/3012 01013G22KT 6SM -SHRA VCTS OVC008CB
      TEMPO 2912/2916 4SM SHRA OVC006
     FM291600 01020G30KT 6SM -SHRA VCTS OVC008CB
     FM292300 01018G27KT P6SM VCTS OVC008CB=

USA.gov is the U.S. government's official web portal to all federal, state and local government web resources and services.